Time;durP1;ratioP1;P1;durP2;ratioP2;P2;SDS_P1;SDS_P2;PMS_P1;PMS_P2;Temp;Humidity;BMP_temperature;BMP_pressure;BME280_temperature;BME280_humidity;BME280_pressure;Samples;Min_cycle;Max_cycle;Signal;HPM_P1;HPM_P2
2021/10/10 00:01:13;;;;;;;85.30;43.50;;;;;;;2.17;47.80;100418.05;113344;1195;98127;-70
2021/10/10 00:03:44;;;;;;;82.20;42.40;;;;;;;2.14;48.36;100414.79;113313;1196;108405;-71
2021/10/10 00:06:11;;;;;;;88.60;42.90;;;;;;;2.12;48.23;100414.81;113357;1196;99013;-71
2021/10/10 00:08:39;;;;;;;79.30;41.30;;;;;;;2.10;48.34;100410.99;113289;1196;99034;-73
2021/10/10 00:11:07;;;;;;;80.50;41.20;;;;;;;2.09;48.41;100410.66;113147;1196;111560;-73
2021/10/10 00:13:35;;;;;;;80.20;43.70;;;;;;;2.06;48.38;100411.58;113403;1193;98896;-71
2021/10/10 00:16:03;;;;;;;82.60;41.20;;;;;;;2.02;48.61;100405.19;113022;1196;107533;-70
2021/10/10 00:18:31;;;;;;;81.30;41.80;;;;;;;2.01;48.36;100408.70;113257;1195;97780;-71
2021/10/10 00:20:58;;;;;;;84.10;42.40;;;;;;;1.98;48.55;100403.48;113308;1193;98998;-72
2021/10/10 00:23:26;;;;;;;84.60;41.90;;;;;;;1.96;48.84;100405.27;114431;1193;112520;-72
2021/10/10 00:25:54;;;;;;;87.90;42.00;;;;;;;1.92;48.45;100407.42;113231;1193;98988;-72
2021/10/10 00:28:22;;;;;;;86.00;44.30;;;;;;;1.90;48.62;100406.75;113411;1193;107526;-74
2021/10/10 00:30:50;;;;;;;80.80;41.60;;;;;;;1.89;48.86;100404.85;113443;1193;98986;-73
2021/10/10 00:33:17;;;;;;;78.50;41.00;;;;;;;1.86;48.85;100403.67;113431;1193;99813;-72
2021/10/10 00:35:45;;;;;;;86.00;42.80;;;;;;;1.82;48.74;100404.09;113223;1193;113625;-72
2021/10/10 00:38:13;;;;;;;88.50;42.70;;;;;;;1.80;49.10;100403.41;113422;1193;98947;-73
2021/10/10 00:40:41;;;;;;;85.20;43.50;;;;;;;1.79;49.15;100401.33;113404;1193;106139;-73
2021/10/10 00:43:10;;;;;;;77.10;40.90;;;;;;;1.78;48.95;100399.42;113469;1193;98952;-73
2021/10/10 00:45:49;;;;;;;83.70;42.20;;;;;;;1.77;49.03;100398.74;113458;1193;98904;-73
2021/10/10 00:48:20;;;;;;;75.50;40.50;;;;;;;1.75;48.95;100392.65;113428;1193;112546;-74
2021/10/10 00:50:48;;;;;;;83.60;44.20;;;;;;;1.73;49.17;100391.10;113431;1193;99644;-74
2021/10/10 00:53:19;;;;;;;81.00;42.20;;;;;;;1.73;49.16;100392.15;113242;1196;107259;-72
2021/10/10 00:55:54;;;;;;;78.70;42.40;;;;;;;1.71;49.16;100393.74;113438;1193;97803;-75
2021/10/10 00:58:25;;;;;;;86.30;44.90;;;;;;;1.70;49.18;100389.73;113438;1193;99341;-73
2021/10/10 01:00:57;;;;;;;79.50;44.60;;;;;;;1.70;49.35;100388.88;113430;1193;113200;-74
2021/10/10 01:03:25;;;;;;;73.40;42.00;;;;;;;1.70;49.36;100389.39;113432;1193;96300;-73
2021/10/10 01:05:53;;;;;;;84.20;43.00;;;;;;;1.70;49.44;100389.21;113421;1193;107479;-73
2021/10/10 01:08:21;;;;;;;83.40;44.70;;;;;;;1.70;49.56;100391.50;113403;1193;100103;-71
2021/10/10 01:10:53;;;;;;;75.40;42.40;;;;;;;1.69;49.58;100386.27;113406;1193;98878;-72
2021/10/10 01:13:24;;;;;;;81.50;43.40;;;;;;;1.68;49.84;100385.40;113385;1193;111133;-72
2021/10/10 01:15:53;;;;;;;80.30;42.60;;;;;;;1.67;49.73;100379.82;113416;1193;98921;-72
2021/10/10 01:18:24;;;;;;;76.00;40.90;;;;;;;1.66;49.61;100380.89;113454;1193;107540;-71
2021/10/10 01:20:57;;;;;;;76.40;41.80;;;;;;;1.63;49.60;100382.50;113379;1193;98979;-71
2021/10/10 01:23:28;;;;;;;79.00;40.80;;;;;;;1.61;49.52;100385.86;113427;1193;99011;-71
2021/10/10 01:25:56;;;;;;;75.60;38.80;;;;;;;1.59;49.69;100386.93;113334;1195;112515;-71
2021/10/10 01:28:23;;;;;;;79.40;39.60;;;;;;;1.55;49.63;100384.36;113418;1193;99026;-71
2021/10/10 01:30:51;;;;;;;68.40;37.50;;;;;;;1.54;49.84;100384.20;113406;1193;107243;-72
2021/10/10 01:33:19;;;;;;;73.50;38.90;;;;;;;1.54;50.17;100385.09;113401;1193;99592;-71
2021/10/10 01:35:47;;;;;;;79.70;38.00;;;;;;;1.52;50.09;100384.59;114022;1193;96787;-71
2021/10/10 01:38:19;;;;;;;70.30;36.60;;;;;;;1.49;50.15;100380.77;113381;1193;112510;-72
2021/10/10 01:40:50;;;;;;;76.00;37.50;;;;;;;1.48;49.83;100381.85;113228;1193;96363;-72
2021/10/10 01:43:18;;;;;;;64.10;36.20;;;;;;;1.46;49.97;100381.00;113375;1193;107274;-71
2021/10/10 01:45:49;;;;;;;68.30;34.80;;;;;;;1.46;50.27;100380.30;113403;1193;99016;-73
2021/10/10 01:48:17;;;;;;;66.00;34.50;;;;;;;1.46;50.28;100378.71;113184;1195;98908;-73
2021/10/10 01:50:47;;;;;;;64.20;32.90;;;;;;;1.46;50.03;100380.81;113372;1193;112508;-72
2021/10/10 01:53:15;;;;;;;73.80;36.40;;;;;;;1.45;50.56;100384.48;113259;1195;98990;-72
2021/10/10 01:55:44;;;;;;;70.80;37.50;;;;;;;1.44;50.50;100381.90;113119;1193;107594;-74
2021/10/10 01:58:15;;;;;;;62.80;32.70;;;;;;;1.43;50.11;100379.63;113411;1195;98916;-72
2021/10/10 02:00:43;;;;;;;73.20;36.70;;;;;;;1.40;50.57;100379.16;113326;1193;99089;-72
2021/10/10 02:03:14;;;;;;;72.00;35.40;;;;;;;1.36;50.50;100383.23;113788;1191;112499;-72
2021/10/10 02:05:42;;;;;;;64.10;35.20;;;;;;;1.35;50.49;100382.73;113445;1193;98939;-72
2021/10/10 02:08:09;;;;;;;68.60;37.70;;;;;;;1.33;50.85;100381.16;113346;1196;107472;-71
2021/10/10 02:10:37;;;;;;;71.10;37.00;;;;;;;1.33;50.75;100379.77;113348;1195;99000;-72
2021/10/10 02:13:05;;;;;;;72.40;36.50;;;;;;;1.33;50.61;100379.79;113385;1193;100053;-72
2021/10/10 02:15:40;;;;;;;61.20;34.90;;;;;;;1.32;50.75;100375.96;113365;1193;112525;-72
2021/10/10 02:18:12;;;;;;;57.50;30.90;;;;;;;1.30;50.71;100372.48;113345;1195;98983;-73
2021/10/10 02:20:40;;;;;;;64.90;35.50;;;;;;;1.28;50.68;100372.86;113386;1195;107343;-73
2021/10/10 02:23:08;;;;;;;70.20;35.70;;;;;;;1.26;50.74;100369.02;113463;1193;98944;-72
2021/10/10 02:25:36;;;;;;;72.20;37.40;;;;;;;1.24;51.01;100367.14;113245;1195;98900;-73
2021/10/10 02:28:04;;;;;;;72.60;36.30;;;;;;;1.22;51.07;100370.48;113379;1195;112549;-72
2021/10/10 02:30:34;;;;;;;70.30;36.00;;;;;;;1.21;50.85;100367.35;113396;1181;98929;-71
2021/10/10 02:33:02;;;;;;;70.40;36.00;;;;;;;1.20;51.10;100368.95;113173;1196;108337;-71
2021/10/10 02:35:33;;;;;;;70.30;35.70;;;;;;;1.18;51.12;100374.04;113383;1195;98983;-72
2021/10/10 02:38:01;;;;;;;70.40;35.80;;;;;;;1.17;51.02;100373.88;113395;1195;98988;-72
2021/10/10 02:40:29;;;;;;;70.00;34.40;;;;;;;1.16;51.13;100372.14;113217;1195;112598;-71
2021/10/10 02:43:00;;;;;;;68.70;35.60;;;;;;;1.15;51.16;100368.67;113397;1195;98990;-71
2021/10/10 02:45:29;;;;;;;67.70;34.10;;;;;;;1.13;51.17;100363.79;113370;1195;106724;-73
2021/10/10 02:47:57;;;;;;;64.80;35.50;;;;;;;1.12;51.21;100363.11;113439;1195;99639;-75
2021/10/10 02:50:28;;;;;;;76.60;34.10;;;;;;;1.10;51.15;100361.55;113416;1195;98905;-73
2021/10/10 02:52:56;;;;;;;63.50;33.20;;;;;;;1.09;51.16;100361.56;113389;1193;112454;-71
2021/10/10 02:55:23;;;;;;;70.90;34.20;;;;;;;1.08;51.13;100360.02;113487;1193;98922;-72
2021/10/10 02:57:51;;;;;;;66.90;33.30;;;;;;;1.07;51.43;100363.16;113371;1195;106151;-73
2021/10/10 03:00:19;;;;;;;61.50;32.50;;;;;;;1.07;51.34;100358.98;113365;1195;98924;-74
2021/10/10 03:02:47;;;;;;;67.80;32.70;;;;;;;1.07;51.68;100359.68;113393;1193;98897;-76
2021/10/10 03:05:17;;;;;;;59.40;31.60;;;;;;;1.07;51.61;100354.60;113437;1193;112548;-74
2021/10/10 03:07:45;;;;;;;62.30;31.20;;;;;;;1.07;51.59;100353.04;113410;1195;97203;-71
2021/10/10 03:10:13;;;;;;;57.70;30.80;;;;;;;1.08;51.70;100353.72;113389;1195;107559;-71
2021/10/10 03:12:41;;;;;;;69.00;31.60;;;;;;;1.08;51.85;100354.94;113409;1193;98929;-71
2021/10/10 03:15:09;;;;;;;64.50;31.10;;;;;;;1.08;51.68;100348.66;113372;1193;96303;-73
2021/10/10 03:17:37;;;;;;;63.20;31.90;;;;;;;1.09;51.88;100349.34;113187;1195;112586;-72
2021/10/10 03:20:08;;;;;;;62.90;30.70;;;;;;;1.09;51.81;100346.02;113389;1193;99085;-73
2021/10/10 03:22:39;;;;;;;61.20;31.00;;;;;;;1.09;51.98;100343.75;113414;1193;107515;-73
2021/10/10 03:25:10;;;;;;;59.20;28.90;;;;;;;1.09;51.82;100348.13;113432;1194;98902;-75
2021/10/10 03:27:41;;;;;;;61.30;32.70;;;;;;;1.08;51.96;100347.27;113464;1193;96472;-73
2021/10/10 03:30:09;;;;;;;62.80;31.40;;;;;;;1.07;51.80;100344.48;113427;1193;112478;-71
2021/10/10 03:32:37;;;;;;;63.00;29.80;;;;;;;1.06;52.10;100342.21;113346;1195;98061;-71
2021/10/10 03:35:09;;;;;;;62.30;30.30;;;;;;;1.05;52.03;100335.92;113359;1195;107556;-72
2021/10/10 03:37:40;;;;;;;63.20;31.00;;;;;;;1.05;52.07;100337.52;113380;1195;98988;-72
2021/10/10 03:40:12;;;;;;;58.00;30.20;;;;;;;1.04;52.12;100334.36;113377;1195;98933;-72
2021/10/10 03:42:43;;;;;;;57.00;27.10;;;;;;;1.02;52.06;100332.81;113358;1195;112482;-71
2021/10/10 03:45:14;;;;;;;61.90;26.60;;;;;;;1.02;52.05;100331.25;113368;1195;96403;-74
2021/10/10 03:47:42;;;;;;;51.40;26.20;;;;;;;1.01;52.27;100331.30;113369;1193;107578;-72
2021/10/10 03:50:09;;;;;;;52.40;26.50;;;;;;;1.00;52.37;100333.55;113413;1193;98927;-74
2021/10/10 03:52:37;;;;;;;55.20;28.30;;;;;;;1.01;52.47;100331.27;113443;1193;99010;-72
2021/10/10 03:57:51;;;;;;;55.60;27.90;;;;;;;1.03;52.38;100331.77;113394;1195;99004;-71
2021/10/10 04:00:19;;;;;;;54.00;26.60;;;;;;;1.03;52.52;100330.89;113317;1195;107496;-72
2021/10/10 04:02:52;;;;;;;51.30;26.70;;;;;;;1.03;52.50;100328.80;113315;1195;98935;-74
2021/10/10 04:07:54;;;;;;;47.20;24.20;;;;;;;1.03;52.59;100327.21;113210;1195;112533;-73
2021/10/10 04:10:22;;;;;;;50.00;26.00;;;;;;;1.03;52.70;100327.91;113193;1195;97398;-73
2021/10/10 04:12:54;;;;;;;53.50;25.00;;;;;;;1.04;52.66;100331.40;113163;1195;107547;-71
2021/10/10 04:15:25;;;;;;;52.10;26.00;;;;;;;1.05;52.75;100327.02;113218;1195;99013;-72
2021/10/10 04:17:53;;;;;;;50.80;27.30;;;;;;;1.05;52.66;100331.39;113341;1196;99045;-74
2021/10/10 04:20:21;;;;;;;50.70;26.20;;;;;;;1.06;52.72;100333.14;113209;1195;110968;-73
2021/10/10 04:22:52;;;;;;;51.20;25.80;;;;;;;1.07;52.86;100332.77;113198;1195;98894;-73
2021/10/10 04:25:19;;;;;;;51.90;26.90;;;;;;;1.07;52.89;100331.38;113327;1195;107537;-71
2021/10/10 04:27:47;;;;;;;56.00;28.60;;;;;;;1.08;52.85;100335.88;113351;1195;99701;-71
2021/10/10 04:30:21;;;;;;;55.20;27.80;;;;;;;1.09;52.88;100331.88;113381;1195;98931;-70
2021/10/10 04:32:49;;;;;;;52.20;26.90;;;;;;;1.09;53.01;100330.98;113147;1195;112550;-72
2021/10/10 04:35:17;;;;;;;49.80;26.80;;;;;;;1.10;52.86;100331.86;113411;1195;98905;-71
2021/10/10 04:37:45;;;;;;;54.70;27.70;;;;;;;1.11;52.94;100329.23;113177;1195;107174;-71
2021/10/10 04:40:13;;;;;;;55.20;26.60;;;;;;;1.11;53.25;100322.92;113196;1195;99004;-71
2021/10/10 04:42:41;;;;;;;51.30;27.00;;;;;;;1.12;53.17;100317.16;113296;1195;97545;-70
2021/10/10 04:45:09;;;;;;;54.80;28.40;;;;;;;1.12;53.12;100314.37;113134;1195;112188;-71
2021/10/10 04:47:36;;;;;;;58.10;27.50;;;;;;;1.12;53.33;100313.65;113324;1195;97217;-71
2021/10/10 04:50:05;;;;;;;55.20;27.30;;;;;;;1.12;53.19;100312.25;113198;1195;107238;-70
2021/10/10 04:52:36;;;;;;;57.60;29.40;;;;;;;1.12;53.30;100318.55;113221;1196;96408;-71
2021/10/10 04:55:07;;;;;;;53.40;28.90;;;;;;;1.11;53.23;100318.22;113476;1193;99005;-71
2021/10/10 04:57:35;;;;;;;55.70;29.20;;;;;;;1.11;53.46;100317.68;113413;1193;112601;-70
2021/10/10 05:00:09;;;;;;;57.10;29.20;;;;;;;1.10;53.44;100317.34;113371;1195;96457;-71
2021/10/10 05:02:37;;;;;;;61.60;28.10;;;;;;;1.12;53.60;100319.25;113246;1195;107553;-71
2021/10/10 05:05:12;;;;;;;56.80;27.30;;;;;;;1.12;53.56;100321.88;113334;1195;98986;-72
2021/10/10 05:07:39;;;;;;;54.70;27.70;;;;;;;1.13;53.50;100324.14;113317;1195;98908;-72
2021/10/10 05:10:10;;;;;;;60.80;29.40;;;;;;;1.14;53.40;100327.26;113440;1193;112540;-73
2021/10/10 05:12:38;;;;;;;58.90;28.20;;;;;;;1.15;53.43;100326.55;113430;1193;98929;-74
2021/10/10 05:15:09;;;;;;;53.60;27.00;;;;;;;1.16;53.50;100333.17;113362;1195;107152;-67
2021/10/10 05:17:37;;;;;;;52.10;26.50;;;;;;;1.17;53.44;100331.42;113318;1195;99025;-71
2021/10/10 05:20:14;;;;;;;52.70;27.80;;;;;;;1.17;53.80;100329.85;113439;1193;98914;-66
2021/10/10 05:22:43;;;;;;;53.10;26.40;;;;;;;1.19;53.74;100330.52;113330;1193;112605;-71
2021/10/10 05:25:10;;;;;;;55.90;27.30;;;;;;;1.23;53.80;100326.96;113360;1195;96605;-70
2021/10/10 05:27:44;;;;;;;56.30;27.70;;;;;;;1.27;53.79;100327.08;113355;1193;107479;-70
2021/10/10 05:30:15;;;;;;;53.10;26.30;;;;;;;1.30;54.09;100328.59;113292;1195;98974;-70
2021/10/10 05:32:43;;;;;;;53.40;25.30;;;;;;;1.34;54.36;100329.09;113319;1195;98900;-71
2021/10/10 05:35:11;;;;;;;55.70;26.00;;;;;;;1.38;53.90;100330.25;113210;1193;112933;-70
2021/10/10 05:37:38;;;;;;;50.30;25.30;;;;;;;1.41;54.15;100333.70;113224;1194;98832;-70
2021/10/10 05:40:10;;;;;;;55.20;25.90;;;;;;;1.44;54.13;100334.52;113450;1193;106508;-72
2021/10/10 05:42:38;;;;;;;47.50;24.70;;;;;;;1.45;54.20;100331.52;113341;1194;99017;-75
2021/10/10 05:45:10;;;;;;;51.30;25.00;;;;;;;1.47;54.15;100331.86;113381;1193;97911;-71
2021/10/10 05:47:40;;;;;;;53.50;26.50;;;;;;;1.50;54.23;100334.44;113317;1193;112263;-72
2021/10/10 05:50:11;;;;;;;46.20;23.30;;;;;;;1.55;54.42;100338.39;113498;1193;99700;-72
2021/10/10 05:52:39;;;;;;;50.10;23.90;;;;;;;1.59;54.50;100338.86;113501;1193;107305;-73
2021/10/10 05:55:12;;;;;;;50.80;25.20;;;;;;;1.60;54.37;100332.88;113449;1193;98928;-71
2021/10/10 05:57:45;;;;;;;52.00;24.80;;;;;;;1.64;54.22;100332.30;113458;1193;99008;-73
2021/10/10 06:00:20;;;;;;;48.20;24.10;;;;;;;1.68;54.37;100328.05;113299;1195;112500;-71
2021/10/10 06:02:51;;;;;;;47.90;24.80;;;;;;;1.70;54.12;100325.04;113434;1193;98991;-72
2021/10/10 06:05:18;;;;;;;50.30;26.00;;;;;;;1.73;54.55;100325.86;113443;1193;107460;-71
2021/10/10 06:07:46;;;;;;;51.40;24.80;;;;;;;1.76;54.49;100327.23;113438;1193;99062;-71
2021/10/10 06:10:14;;;;;;;54.00;27.70;;;;;;;1.80;54.62;100331.53;113475;1193;99017;-70
2021/10/10 06:12:42;;;;;;;51.60;26.30;;;;;;;1.83;54.67;100323.95;113448;1193;112472;-71
2021/10/10 06:15:13;;;;;;;51.20;26.40;;;;;;;1.86;54.35;100323.55;113492;1193;98451;-71
2021/10/10 06:17:41;;;;;;;48.30;24.60;;;;;;;1.87;54.56;100322.84;113389;1193;107488;-71
2021/10/10 06:20:09;;;;;;;50.70;24.70;;;;;;;1.91;54.36;100323.46;113477;1193;96701;-72
2021/10/10 06:22:37;;;;;;;51.60;24.10;;;;;;;1.95;54.52;100327.60;113354;1193;99010;-71
2021/10/10 06:25:08;;;;;;;50.40;25.00;;;;;;;1.98;54.82;100328.97;113461;1193;112605;-72
2021/10/10 06:27:36;;;;;;;47.40;24.40;;;;;;;2.03;54.85;100331.85;113444;1193;96398;-72
2021/10/10 06:30:06;;;;;;;52.80;25.30;;;;;;;2.09;54.77;100334.37;113245;1193;107118;-72
2021/10/10 06:32:34;;;;;;;47.00;24.80;;;;;;;2.15;54.92;100333.38;113421;1193;98933;-71
2021/10/10 06:35:02;;;;;;;52.90;25.20;;;;;;;2.23;54.91;100337.11;113237;1195;99014;-70
2021/10/10 06:37:30;;;;;;;48.10;23.40;;;;;;;2.28;54.99;100339.63;113473;1193;112561;-71
2021/10/10 06:39:58;;;;;;;46.50;23.50;;;;;;;2.33;55.24;100337.77;113236;1193;97646;-71
2021/10/10 06:42:29;;;;;;;50.70;24.00;;;;;;;2.40;55.31;100340.30;113478;1193;107545;-72
2021/10/10 06:44:57;;;;;;;50.50;23.30;;;;;;;2.45;55.16;100336.70;113319;1180;96485;-71
2021/10/10 06:47:24;;;;;;;47.60;25.10;;;;;;;2.50;54.97;100337.48;113470;1193;98981;-72
2021/10/10 06:49:52;;;;;;;45.00;22.90;;;;;;;2.53;55.24;100331.98;113413;1181;112345;-71
2021/10/10 06:52:20;;;;;;;47.70;23.30;;;;;;;2.58;55.20;100334.01;113270;1195;98890;-72
2021/10/10 06:54:57;;;;;;;53.30;23.40;;;;;;;2.62;55.54;100333.41;113400;1193;106696;-71
2021/10/10 06:57:28;;;;;;;49.70;23.30;;;;;;;2.65;55.53;100328.27;113451;1193;96392;-72
2021/10/10 07:00:00;;;;;;;44.70;23.10;;;;;;;2.72;55.40;100329.02;113466;1193;98939;-72
2021/10/10 07:02:35;;;;;;;46.00;22.60;;;;;;;2.77;55.50;100327.48;113422;1193;112650;-71
2021/10/10 07:05:04;;;;;;;46.50;22.50;;;;;;;2.84;55.12;100329.30;113377;1193;99506;-71
2021/10/10 07:07:31;;;;;;;49.10;21.50;;;;;;;2.90;55.51;100324.26;113580;1193;107529;-70
2021/10/10 07:09:59;;;;;;;50.20;22.10;;;;;;;2.97;55.28;100326.55;113379;1193;98898;-69
2021/10/10 07:12:27;;;;;;;52.90;24.00;;;;;;;3.04;55.80;100323.96;113366;1193;98997;-71
2021/10/10 07:14:58;;;;;;;45.20;21.30;;;;;;;3.12;55.37;100322.92;113435;1193;113886;-69
2021/10/10 07:17:27;;;;;;;46.00;21.60;;;;;;;3.19;55.39;100322.94;113460;1193;98906;-71
2021/10/10 07:20:03;;;;;;;45.80;20.90;;;;;;;3.26;55.49;100320.86;113274;1195;107580;-71
2021/10/10 07:25:12;;;;;;;44.20;20.30;;;;;;;3.44;56.07;100316.59;113265;1195;98879;-69
2021/10/10 07:27:47;;;;;;;47.60;21.60;;;;;;;3.53;56.09;100312.52;113220;1195;112131;-70
2021/10/10 07:30:15;;;;;;;41.50;20.70;;;;;;;3.63;55.66;100319.31;113461;1193;98930;-72
2021/10/10 07:32:46;;;;;;;43.50;21.20;;;;;;;3.69;55.90;100322.30;113270;1195;108871;-71
2021/10/10 07:35:14;;;;;;;42.60;21.50;;;;;;;3.76;55.95;100320.03;113295;1195;99008;-70
2021/10/10 07:37:42;;;;;;;44.10;21.70;;;;;;;3.84;56.06;100317.92;113272;1195;96402;-72
2021/10/10 07:40:15;;;;;;;44.00;22.00;;;;;;;3.93;56.00;100312.97;113206;1195;112137;-73
2021/10/10 07:42:44;;;;;;;46.40;21.60;;;;;;;4.01;55.98;100311.00;113377;1193;98987;-71
2021/10/10 07:45:13;;;;;;;42.40;20.90;;;;;;;4.10;56.13;100310.59;113261;1194;107105;-72
2021/10/10 07:50:11;;;;;;;42.60;20.20;;;;;;;4.31;56.19;100314.96;113309;1195;98927;-71
2021/10/10 07:52:45;;;;;;;41.90;19.70;;;;;;;4.42;56.20;100313.45;113297;1195;113017;-70
2021/10/10 07:55:16;;;;;;;40.10;19.80;;;;;;;4.55;56.29;100312.05;113151;1195;97061;-71
2021/10/10 07:57:44;;;;;;;42.80;19.50;;;;;;;4.66;56.22;100305.94;113331;1193;107529;-71
2021/10/10 08:00:16;;;;;;;37.60;18.30;;;;;;;4.72;56.15;100303.08;113403;1193;96377;-71
2021/10/10 08:02:57;;;;;;;41.80;19.20;;;;;;;4.80;56.16;100302.02;113428;1193;98907;-72
2021/10/10 08:05:28;;;;;;;41.10;17.90;;;;;;;4.91;56.25;100299.76;113176;1196;113005;-70
2021/10/10 08:07:59;;;;;;;40.80;17.80;;;;;;;5.01;56.31;100300.89;113204;1195;99000;-71
2021/10/10 08:10:27;;;;;;;38.30;17.70;;;;;;;5.10;56.28;100298.51;113400;1193;106896;-72
2021/10/10 08:12:56;;;;;;;44.00;19.20;;;;;;;5.21;56.36;100299.05;113447;1193;98960;-72
2021/10/10 08:15:24;;;;;;;37.80;18.20;;;;;;;5.33;56.20;100295.51;113431;1193;98903;-72
2021/10/10 08:17:52;;;;;;;39.10;17.50;;;;;;;5.43;56.34;100298.54;113448;1177;112519;-71
2021/10/10 08:20:24;;;;;;;39.50;18.00;;;;;;;5.54;56.39;100294.87;113421;1193;98885;-72
2021/10/10 08:22:57;;;;;;;42.50;19.60;;;;;;;5.64;56.29;100293.98;113247;1195;107562;-73
2021/10/10 08:25:25;;;;;;;43.70;18.70;;;;;;;5.77;56.37;100285.48;113341;1193;98953;-71
2021/10/10 08:27:52;;;;;;;37.90;17.60;;;;;;;5.93;56.34;100278.80;113357;1193;96386;-72
2021/10/10 08:30:25;;;;;;;40.90;18.80;;;;;;;6.24;56.55;100280.05;113324;1193;112538;-72
2021/10/10 08:32:53;;;;;;;43.10;18.00;;;;;;;6.74;56.45;100276.66;113360;1193;98929;-71
2021/10/10 08:35:24;;;;;;;37.40;17.80;;;;;;;7.21;56.29;100271.16;113361;1193;107538;-72
2021/10/10 08:37:52;;;;;;;40.70;19.00;;;;;;;7.73;56.16;100266.06;113342;1193;98855;-75
2021/10/10 08:40:20;;;;;;;44.10;18.90;;;;;;;8.26;56.38;100256.23;113431;1193;96514;-72
2021/10/10 08:42:52;;;;;;;45.40;20.30;;;;;;;8.83;56.30;100258.15;113410;1193;112551;-74
2021/10/10 08:45:28;;;;;;;42.40;19.70;;;;;;;9.29;56.25;100254.59;113463;1193;98972;-79
2021/10/10 08:47:59;;;;;;;41.20;18.70;;;;;;;9.69;56.27;100255.10;113496;1186;107595;-78
2021/10/10 08:50:31;;;;;;;41.70;19.60;;;;;;;10.04;56.17;100252.46;113462;1193;96387;-77
2021/10/10 08:53:03;;;;;;;36.90;17.90;;;;;;;10.31;56.26;100247.70;113392;1193;99028;-75
2021/10/10 08:55:34;;;;;;;34.10;17.40;;;;;;;10.45;56.06;100245.91;113354;1193;112326;-74
2021/10/10 08:58:09;;;;;;;36.10;18.10;;;;;;;10.71;56.40;100240.80;113398;1193;99028;-75
2021/10/10 09:00:46;;;;;;;35.70;16.30;;;;;;;11.04;56.46;100239.41;113442;1193;107984;-75
2021/10/10 09:03:19;;;;;;;33.10;15.60;;;;;;;11.34;56.43;100239.11;113365;1193;99061;-72
2021/10/10 09:05:54;;;;;;;54.10;27.50;;;;;;;11.63;56.07;100235.66;113320;1193;99031;-72
2021/10/10 09:08:25;;;;;;;43.50;18.50;;;;;;;11.84;56.01;100232.66;113344;1193;112641;-73
2021/10/10 09:11:00;;;;;;;38.00;16.50;;;;;;;12.02;56.01;100241.56;113417;1193;97802;-73
2021/10/10 09:13:36;;;;;;;41.00;17.90;;;;;;;12.31;55.96;100231.89;113313;1193;106795;-72
2021/10/10 09:16:09;;;;;;;44.90;16.80;;;;;;;12.69;56.02;100238.76;113408;1193;98241;-75
2021/10/10 09:18:44;;;;;;;51.40;17.90;;;;;;;13.16;56.00;100235.08;113435;1193;98956;-71
2021/10/10 09:21:14;;;;;;;46.30;16.50;;;;;;;13.60;55.40;100229.93;113397;1193;112869;-73
2021/10/10 09:23:49;;;;;;;48.00;17.60;;;;;;;14.01;55.35;100233.59;113443;1193;96874;-71
2021/10/10 09:26:21;;;;;;;55.70;17.60;;;;;;;14.52;55.20;100228.84;113327;1195;107423;-74
2021/10/10 09:28:51;;;;;;;51.60;16.90;;;;;;;14.84;55.11;100229.29;113407;1193;99038;-72
2021/10/10 09:31:18;;;;;;;48.50;16.00;;;;;;;14.95;54.98;100227.46;113445;1193;99009;-75
2021/10/10 09:33:57;;;;;;;45.90;15.40;;;;;;;14.94;54.52;100227.89;113306;1193;112330;-74
2021/10/10 09:36:29;;;;;;;46.10;16.90;;;;;;;14.83;54.22;100227.62;113339;1193;99485;-72
2021/10/10 09:39:11;;;;;;;43.10;16.70;;;;;;;14.87;54.15;100227.31;113388;1193;108054;-71
2021/10/10 09:41:57;;;;;;;38.50;15.30;;;;;;;14.86;54.10;100229.14;113403;1193;98992;-78
2021/10/10 09:44:39;;;;;;;45.60;15.60;;;;;;;14.86;53.85;100225.62;113422;1193;98898;-77
2021/10/10 09:47:12;;;;;;;45.60;15.70;;;;;;;14.85;53.73;100222.45;113613;1193;113155;-78
2021/10/10 09:49:43;;;;;;;45.50;14.90;;;;;;;14.97;53.67;100221.97;113442;1193;96373;-71
2021/10/10 09:52:14;;;;;;;35.30;14.30;;;;;;;15.06;53.77;100220.39;113449;1194;107458;-73
2021/10/10 09:54:49;;;;;;;35.70;13.10;;;;;;;15.12;53.28;100214.41;113337;1193;96489;-73
2021/10/10 09:57:20;;;;;;;33.10;13.90;;;;;;;15.16;52.99;100215.73;113388;1193;98965;-71
2021/10/10 09:59:53;;;;;;;30.50;13.20;;;;;;;15.13;52.87;100214.13;113364;1193;112577;-74
2021/10/10 10:02:42;;;;;;;32.00;13.60;;;;;;;15.10;52.83;100214.76;113389;1193;99007;-73
2021/10/10 10:05:29;;;;;;;35.90;13.80;;;;;;;15.10;52.05;100214.77;113390;1193;108417;-72
2021/10/10 10:07:59;;;;;;;34.00;13.90;;;;;;;15.08;52.35;100213.45;113402;1193;97441;-71
2021/10/10 10:10:32;;;;;;;37.60;14.00;;;;;;;15.10;52.16;100209.58;113316;1193;98911;-71
2021/10/10 10:13:01;;;;;;;;;;;;;;;15.08;51.62;100212.77;113347;1193;112527;-71
2021/10/10 10:15:32;;;;;;;39.40;11.70;;;;;;;14.96;51.59;100212.19;113330;1194;99029;-72
2021/10/10 10:18:04;;;;;;;56.90;27.70;;;;;;;14.84;51.17;100215.23;113386;1193;107413;-73
2021/10/10 10:20:35;;;;;;;41.50;15.80;;;;;;;14.72;51.07;100211.22;113381;1193;98980;-72
2021/10/10 10:23:07;;;;;;;43.20;14.70;;;;;;;14.68;50.65;100215.98;113425;1193;96411;-72
2021/10/10 10:25:39;;;;;;;36.30;12.00;;;;;;;14.65;50.80;100216.55;113403;1193;112469;-74
2021/10/10 10:28:12;;;;;;;35.80;12.80;;;;;;;14.68;50.92;100215.38;113454;1193;100839;-76
2021/10/10 10:30:46;;;;;;;33.90;11.70;;;;;;;14.67;50.49;100213.48;113318;1193;106730;-70
2021/10/10 10:33:14;;;;;;;28.20;11.60;;;;;;;14.57;49.84;100212.10;113295;1193;99109;-71
2021/10/10 10:35:48;;;;;;;50.20;25.20;;;;;;;14.46;50.10;100214.29;114037;1193;97069;-71
2021/10/10 10:38:16;;;;;;;34.10;14.20;;;;;;;14.40;49.95;100212.20;113301;1194;111511;-70
2021/10/10 10:40:44;;;;;;;30.60;11.20;;;;;;;14.40;49.87;100209.34;113330;1193;100113;-71
2021/10/10 10:43:33;;;;;;;28.10;11.60;;;;;;;14.37;49.63;100209.41;113350;1194;107367;-72
2021/10/10 10:46:09;;;;;;;27.70;10.80;;;;;;;14.36;49.57;100207.50;113373;1193;97061;-73
2021/10/10 10:48:37;;;;;;;30.90;10.60;;;;;;;14.35;49.35;100204.54;113394;1193;98991;-70
2021/10/10 10:51:26;;;;;;;30.60;10.40;;;;;;;14.31;49.31;100205.00;113339;1195;112644;-70
2021/10/10 10:54:53;;;;;;;27.10;10.70;;;;;;;14.31;48.61;100196.23;113518;1193;98926;-70
2021/10/10 10:57:28;;;;;;;26.70;9.70;;;;;;;14.38;49.00;100195.39;113158;1193;108358;-72
2021/10/10 11:00:05;;;;;;;25.80;9.80;;;;;;;14.45;48.91;100196.69;113316;1193;99034;-74
2021/10/10 11:02:55;;;;;;;27.60;9.80;;;;;;;14.47;48.31;100190.27;113124;1195;99100;-73
2021/10/10 11:05:54;;;;;;;24.10;9.60;;;;;;;14.41;48.41;100189.13;113223;1193;112556;-76
2021/10/10 11:08:22;;;;;;;28.50;9.40;;;;;;;14.30;47.70;100188.30;113232;1193;99601;-74
2021/10/10 11:11:09;;;;;;;36.20;11.50;;;;;;;14.17;47.48;100185.44;113027;1194;107528;-72
2021/10/10 11:13:38;;;;;;;31.70;10.00;;;;;;;14.06;47.78;100189.05;113125;1193;99020;-73
2021/10/10 11:16:11;;;;;;;30.70;11.20;;;;;;;14.01;47.70;100183.17;113199;1193;97486;-77
2021/10/10 11:19:02;;;;;;;26.50;9.00;;;;;;;14.03;47.76;100183.95;113335;1193;113103;-74
2021/10/10 11:21:32;;;;;;;25.40;9.90;;;;;;;14.05;47.46;100182.70;113126;1193;98882;-73
2021/10/10 11:24:01;;;;;;;31.30;10.30;;;;;;;14.04;47.49;100181.94;112933;1195;107464;-74
2021/10/10 11:26:34;;;;;;;34.40;9.90;;;;;;;14.05;47.39;100173.29;113121;1193;98901;-73
2021/10/10 11:29:08;;;;;;;26.10;9.60;;;;;;;14.09;47.07;100166.19;113190;1193;97257;-72
2021/10/10 11:31:38;;;;;;;28.10;8.80;;;;;;;14.14;47.25;100172.45;112970;1201;114296;-72